Data for 07/29/2018

Time Sea-Level Adjusted Pressure Absolute Pressure Temperature Relative Humidity Dew Point   
(mb) (inHg) (mb) (inHg) (C) (F) (%) (C) (F)
00:05 1025 30.27 854 25.22 16 60.8 55 7.1 44.8
00:10 1025 30.27 854 25.22 16 60.8 55 7.1 44.8
00:15 1025 30.27 854 25.22 15.9 60.7 55 7.1 44.8
00:20 1025 30.27 854 25.22 15.8 60.4 57 7.3 45.1
00:25 1025 30.27 854 25.22 15.5 59.9 59 7.6 45.6
00:30 1025 30.27 854 25.22 15.2 59.3 59 7.3 45.2
00:35 1025 30.27 854 25.22 15.1 59.1 59 7.2 45
00:40 1025 30.27 854 25.22 15 59.1 59 7.1 44.8
00:45 1025 30.27 854 25.22 15.1 59.2 57 6.8 44.2
00:50 1025 30.27 854 25.22 15.2 59.4 58 7.1 44.8
00:55 1025 30.27 854 25.22 14.8 58.7 60 7.1 44.8
01:00 1025 30.27 854 25.22 14.6 58.2 59 6.8 44.2
01:05 1025 30.27 854 25.22 14.6 58.3 58 6.5 43.7
01:10 1025 30.27 854 25.22 14.7 58.4 58 6.7 44
01:15 1025 30.27 854 25.22 14.5 58 60 6.8 44.2
01:20 1025 30.27 854 25.22 14.2 57.5 60 6.7 44.1
01:25 1025 30.27 854 25.22 14.1 57.3 61 6.6 43.9
01:30 1025 30.27 854 25.22 14 57.2 61 6.7 44
01:35 1025 30.27 854 25.22 14 57.1 60 6.5 43.7
01:40 1025 30.27 854 25.22 14 57.2 61 6.7 44
01:45 1025 30.27 854 25.22 13.8 56.9 62 6.8 44.2
01:50 1025 30.27 854 25.22 13.6 56.5 62 6.6 43.9
01:55 1025 30.27 854 25.22 13.6 56.6 62 6.5 43.7
02:00 1025 30.27 854 25.22 13.8 56.8 61 6.5 43.7
02:05 1025 30.27 854 25.22 13.7 56.7 62 6.6 43.8
02:10 1025 30.27 854 25.22 13.6 56.4 64 6.8 44.3
02:15 1025 30.27 854 25.22 13.2 55.7 64 6.6 43.9
02:20 1025 30.27 854 25.22 13.1 55.5 64 6.6 43.8
02:25 1025 30.27 854 25.22 13 55.5 65 6.6 43.8
02:30 1025 30.27 854 25.22 13 55.3 65 6.6 43.9
02:35 1025 30.27 854 25.22 12.9 55.1 65 6.6 43.8
02:40 1025 30.27 854 25.22 12.9 55.1 65 6.6 43.8
02:45 1025 30.27 854 25.22 12.9 55.2 65 6.5 43.7
02:50 1025 30.27 854 25.22 12.9 55.3 66 6.7 44.1
02:55 1025 30.27 854 25.22 12.8 55 66 6.7 44
03:00 1025 30.27 854 25.22 12.7 54.9 66 6.6 43.8
03:05 1025 30.27 854 25.22 12.9 55.1 65 6.5 43.7
03:10 1025 30.27 854 25.22 13 55.4 63 6.3 43.3
03:15 1025 30.27 854 25.22 13.2 55.7 64 6.5 43.7
03:20 1025 30.27 854 25.22 13.2 55.7 64 6.5 43.8
03:25 1025 30.27 854 25.22 12.9 55.3 67 7 44.5
03:30 1025 30.27 854 25.22 12.1 53.9 70 6.9 44.5
03:35 1025 30.27 854 25.22 11.7 53.1 70 6.5 43.7
03:40 1025 30.27 854 25.22 11.7 53.1 70 6.5 43.7
03:45 1025 30.27 854 25.22 11.6 52.9 71 6.5 43.7
03:50 1025 30.27 854 25.22 11.4 52.6 71 6.4 43.5
03:55 1025 30.27 854 25.22 11.4 52.6 70 6.2 43.2
04:00 1025 30.27 854 25.22 11.6 52.9 69 6.2 43.1
04:05 1025 30.27 854 25.22 11.7 53.1 69 6.3 43.3
04:10 1025 30.27 854 25.22 11.7 53 69 6.2 43.2
04:15 1025 30.27 854 25.22 11.7 53.1 70 6.4 43.5
04:20 1025 30.27 854 25.22 11.3 52.4 72 6.4 43.5
04:25 1025 30.27 854 25.22 11.3 52.3 70 6.1 42.9
04:30 1025 30.27 854 25.22 11.2 52.1 71 6.1 42.9
04:35 1025 30.27 854 25.22 11 51.9 71 6.1 42.9
04:40 1025 30.27 854 25.22 10.8 51.5 72 6.1 42.9
04:45 1025 30.27 854 25.22 10.7 51.2 72 5.9 42.7
04:50 1025 30.27 854 25.22 10.6 51 73 5.9 42.7
04:55 1025 30.27 854 25.22 10.6 51 73 5.9 42.7
05:00 1025 30.27 854 25.22 10.6 51.1 73 6 42.8
05:05 1025 30.27 854 25.22 10.6 51 73 6 42.8
05:10 1025 30.27 854 25.22 10.5 50.9 73 5.9 42.7
05:15 1025 30.27 854 25.22 10.6 51 73 5.9 42.6
05:20 1025 30.27 854 25.22 10.9 51.7 71 5.9 42.5
05:25 1025 30.27 854 25.22 11 51.7 71 6 42.8
05:30 1025 30.27 854 25.22 10.9 51.6 71 6 42.7
05:35 1025 30.27 854 25.22 11 51.8 70 5.8 42.5
05:40 1025 30.27 854 25.22 11.1 51.9 69 5.7 42.3
05:45 1025 30.27 854 25.22 11.1 52 70 5.8 42.5
05:50 1025 30.27 854 25.22 11 51.8 71 5.9 42.7
05:55 1025 30.27 854 25.22 10.8 51.4 71 5.9 42.6
06:00 1025 30.27 854 25.22 10.6 51.1 72 5.8 42.4
06:05 1025 30.27 854 25.22 10.7 51.3 71 5.6 42.1
06:10 1025 30.27 854 25.22 10.9 51.5 71 5.8 42.4
06:15 1025 30.27 854 25.22 10.9 51.6 70 5.7 42.3
06:20 1025 30.27 854 25.22 10.9 51.5 71 5.7 42.3
06:25 1025 30.27 854 25.22 10.9 51.5 71 5.9 42.5
06:30 1025 30.27 854 25.22 10.8 51.5 70 5.7 42.3
06:35 1025 30.27 854 25.22 11.1 51.9 70 5.8 42.5
06:40 1025 30.27 854 25.22 11.2 52.1 69 5.8 42.5
06:45 1025 30.27 854 25.22 11.4 52.5 68 5.8 42.5
06:50 1025 30.27 854 25.22 11.5 52.7 69 6 42.8
06:55 1025 30.27 854 25.22 11.5 52.6 69 6.1 43
07:00 1025 30.27 854 25.22 11.5 52.7 68 5.9 42.6
07:05 1025 30.27 855 25.25 11.7 53 68 6 42.7
07:10 1025 30.27 855 25.25 11.7 53 68 6 42.9
07:15 1025 30.27 855 25.25 11.6 52.8 69 6.1 43
07:20 1025 30.27 855 25.25 11.6 52.9 69 6.2 43.1
07:25 1025 30.27 855 25.25 11.5 52.7 70 6.2 43.1
07:30 1025 30.27 855 25.25 11.6 52.8 68 5.9 42.7
07:35 1025 30.27 855 25.25 11.8 53.3 67 6 42.8
07:40 1025 30.27 855 25.25 12.2 54 65 5.8 42.5
07:45 1026 30.3 855 25.25 12.6 54.7 64 6 42.8
07:50 1026 30.3 855 25.25 13 55.4 64 6.3 43.4
07:55 1026 30.3 855 25.25 13.2 55.7 63 6.4 43.5
08:00 1026 30.3 855 25.25 13.6 56.5 63 6.7 44
08:05 1026 30.3 855 25.25 14 57.1 61 6.5 43.7
08:10 1026 30.3 855 25.25 14.1 57.4 61 6.7 44.1
08:15 1026 30.3 855 25.25 14.7 58.5 58 6.7 44.1
08:20 1026 30.3 855 25.25 15 58.9 58 6.8 44.2
08:25 1026 30.3 855 25.25 15.2 59.3 56 6.5 43.7
08:30 1026 30.3 855 25.25 15.9 60.7 54 6.8 44.2
08:35 1026 30.3 855 25.25 16.2 61.1 54 7 44.5
08:40 1026 30.3 855 25.25 16.5 61.6 54 7.2 45
08:45 1026 30.3 855 25.25 16.3 61.3 53 6.9 44.4
08:50 1026 30.3 855 25.25 16.8 62.2 51 6.8 44.2
08:55 1026 30.3 855 25.25 17.3 63.1 50 7 44.6
09:00 1026 30.3 855 25.25 17.6 63.6 51 7.3 45.2
09:05 1026 30.3 855 25.25 17.9 64.2 49 7.1 44.8
09:10 1026 30.3 855 25.25 17.9 64.3 50 7.5 45.5
09:15 1026 30.3 855 25.25 17.6 63.7 51 7.4 45.3
09:20 1026 30.3 855 25.25 17.6 63.6 50 7.2 44.9
09:25 1026 30.3 855 25.25 17.8 64 50 7.2 45
09:30 1026 30.3 855 25.25 18.1 64.6 49 7.4 45.3
09:35 1026 30.3 855 25.25 18.3 64.9 49 7.4 45.3
09:40 1026 30.3 855 25.25 17.6 63.8 49 7 44.7
09:45 1026 30.3 855 25.25 18 64.5 47 6.5 43.8
09:50 1026 30.3 855 25.25 19.1 66.4 44 6.7 44.1
09:55 1026 30.3 855 25.25 19.2 66.5 46 7.5 45.6
10:00 1026 30.3 855 25.25 19.6 67.3 41 6.2 43.2
10:05 1026 30.3 855 25.25 19.3 66.7 47 7.7 45.8
10:10 1026 30.3 855 25.25 19.1 66.3 44 6.8 44.3
10:15 1026 30.3 855 25.25 19.8 67.7 42 6.8 44.2
10:20 1026 30.3 855 25.25 20 67.9 43 7.3 45.2
10:25 1026 30.3 855 25.25 19.5 67.1 47 8 46.4
10:30 1026 30.3 855 25.25 19.8 67.6 44 7.3 45.2
10:35 1026 30.3 855 25.25 20.1 68.2 43 7.2 44.9
10:40 1026 30.3 855 25.25 19.6 67.2 43 6.6 44
10:45 1026 30.3 855 25.25 20 67.9 44 7.4 45.3
10:50 1026 30.3 855 25.25 20.9 69.7 41 7.2 45
10:55 1026 30.3 855 25.25 20.6 69 42 7.3 45.1
11:00 1026 30.3 855 25.25 20.8 69.5 41 7.1 44.8
11:05 1026 30.3 855 25.25 21.6 70.9 39 7.2 45
11:10 1026 30.3 855 25.25 21.9 71.5 39 7.5 45.6
11:15 1026 30.3 855 25.25 21.7 71.1 40 7.6 45.7
11:20 1026 30.3 855 25.25 20.9 69.6 41 7.3 45.1
11:25 1026 30.3 855 25.25 20.1 68.2 41 6.7 44.1
11:30 1026 30.3 855 25.25 21.2 70.1 40 7.3 45.2
11:35 1026 30.3 855 25.25 21.2 70.2 39 7 44.6
11:40 1026 30.3 855 25.25 22.3 72.1 38 7.3 45.2
11:45 1026 30.3 855 25.25 22.8 73 36 7 44.6
11:50 1026 30.3 855 25.25 22.2 72 38 7.6 45.7
11:55 1026 30.3 855 25.25 21.7 71 39 7.4 45.3
12:00 1026 30.3 855 25.25 22.5 72.5 37 7.4 45.3
12:05 1026 30.3 855 25.25 22.6 72.6 38 7.8 46.1
12:10 1026 30.3 855 25.25 22.5 72.4 38 7.8 46
12:15 1026 30.3 855 25.25 23 73.4 35 6.9 44.5
12:20 1026 30.3 855 25.25 23.2 73.8 33 6.4 43.6
12:25 1026 30.3 855 25.25 23 73.4 37 7.8 46
12:30 1026 30.3 855 25.25 23.1 73.5 34 6.8 44.2
12:35 1026 30.3 855 25.25 23.6 74.5 32 6.1 43
12:40 1026 30.3 855 25.25 23.7 74.6 31 5.9 42.6
12:45 1026 30.3 855 25.25 23.9 74.9 31 6 42.9
12:50 1026 30.3 855 25.25 23.8 74.8 30 5.3 41.5
12:55 1026 30.3 855 25.25 23.6 74.5 30 5.4 41.7
13:00 1026 30.3 855 25.25 23.9 75 31 6.1 43.1
13:05 1026 30.3 855 25.25 24.2 75.5 30 5.9 42.7
13:10 1026 30.3 855 25.25 24.2 75.6 30 5.8 42.5
13:15 1026 30.3 855 25.25 24.3 75.7 27 4.5 40.2
13:20 1026 30.3 855 25.25 24.2 75.6 26 3.9 39
13:25 1026 30.3 855 25.25 25 76.9 26 4.6 40.3
13:30 1026 30.3 855 25.25 24.1 75.3 29 5 40.9
13:35 1026 30.3 855 25.25 24.7 76.4 26 4.1 39.3
13:40 1026 30.3 855 25.25 25.1 77.2 27 4.9 40.7
13:45 1026 30.3 855 25.25 25.4 77.8 27 5.3 41.5
13:50 1026 30.3 855 25.25 25.3 77.6 26 4.9 40.9
13:55 1026 30.3 855 25.25 25.4 77.6 26 4.9 40.8
14:00 1026 30.3 855 25.25 25.3 77.6 28 5.7 42.3
14:05 1026 30.3 855 25.25 24.7 76.5 26 4.2 39.5
14:10 1026 30.3 855 25.25 23.8 74.8 28 4.5 40
14:15 1026 30.3 855 25.25 23.6 74.5 28 4.4 39.9
14:20 1026 30.3 855 25.25 23.6 74.5 28 4.3 39.8
14:25 1026 30.3 855 25.25 25.2 77.4 26 4.4 40
14:30 1026 30.3 855 25.25 26 78.7 24 4.2 39.6
14:35 1026 30.3 855 25.25 25.9 78.7 25 4.5 40
14:40 1026 30.3 855 25.25 24.9 76.8 25 4 39.3
14:45 1026 30.3 855 25.25 25.5 77.9 25 4.5 40.1
14:50 1025 30.27 855 25.25 26.1 78.9 23 3.8 38.8
14:55 1026 30.3 855 25.25 26.1 78.9 23 3.8 38.9
15:00 1025 30.27 855 25.25 25.6 78.1 25 4.3 39.8
15:05 1025 30.27 855 25.25 25.3 77.5 23 3.2 37.8
15:10 1025 30.27 855 25.25 25.8 78.4 23 3.3 38
15:15 1025 30.27 855 25.25 25.9 78.5 22 2.6 36.7
15:20 1025 30.27 855 25.25 26 78.8 20 1.9 35.4
15:25 1025 30.27 855 25.25 25.9 78.5 22 2.9 37.3
15:30 1025 30.27 855 25.25 26.2 79.1 22 3.2 37.7
15:35 1025 30.27 855 25.25 25.7 78.2 22 2.9 37.3
15:40 1025 30.27 855 25.25 26.6 79.9 22 3.7 38.6
15:45 1025 30.27 855 25.25 26.6 79.9 22 3.6 38.5
15:50 1025 30.27 855 25.25 26.4 79.6 22 3.3 38
15:55 1025 30.27 855 25.25 26.4 79.5 22 3.4 38.2
16:00 1025 30.27 855 25.25 26 78.9 21 2.6 36.6
16:05 1025 30.27 855 25.25 25.6 78.1 22 2.8 37.1
16:10 1025 30.27 855 25.25 26.4 79.6 22 3 37.4
16:15 1025 30.27 855 25.25 26.2 79.2 21 2.5 36.5
16:20 1025 30.27 855 25.25 25.9 78.5 22 2.9 37.3
16:25 1025 30.27 855 25.25 26.1 78.9 22 2.7 36.9
16:30 1025 30.27 855 25.25 27 80.6 20 2.4 36.3
16:35 1025 30.27 855 25.25 26.9 80.3 20 2.6 36.6
16:40 1025 30.27 855 25.25 26.7 80 21 2.6 36.7
16:45 1025 30.27 855 25.25 26.6 79.8 20 2.2 36
16:50 1025 30.27 855 25.25 26.1 79.1 21 2.5 36.5
16:55 1025 30.27 854 25.22 25.4 77.7 22 2.6 36.7
17:00 1025 30.27 855 25.25 25.6 78.1 22 2.4 36.4
17:05 1025 30.27 855 25.25 26 78.7 21 2.5 36.5
17:10 1025 30.27 855 25.25 26 78.8 22 2.9 37.2
17:15 1025 30.27 855 25.25 26.3 79.3 21 2.5 36.4
17:20 1025 30.27 855 25.25 26.5 79.7 21 2.9 37.3
17:25 1025 30.27 855 25.25 26.6 79.9 21 3 37.4
17:30 1025 30.27 854 25.22 26 78.8 22 2.7 36.8
17:35 1025 30.27 854 25.22 26.2 79.2 22 2.9 37.2
17:40 1025 30.27 855 25.25 26.7 80 22 3.2 37.7
17:45 1025 30.27 855 25.25 26.5 79.8 21 3 37.3
17:50 1025 30.27 855 25.25 26.6 79.9 20 2.4 36.3
17:55 1025 30.27 855 25.25 26.4 79.5 21 2.8 37.1
18:00 1025 30.27 855 25.25 26.1 78.9 20 1.4 34.5
18:05 1025 30.27 855 25.25 26.5 79.7 20 2.1 35.8
18:10 1025 30.27 855 25.25 26.2 79.2 19 1.1 34
18:15 1025 30.27 855 25.25 26.2 79.2 20 1.4 34.6
18:20 1025 30.27 855 25.25 25.6 78 20 1.3 34.4
18:25 1025 30.27 855 25.25 25.1 77.2 19 0.2 32.3
18:30 1025 30.27 855 25.25 25.3 77.6 18 -0.2 31.6
18:35 1025 30.27 855 25.25 25.1 77.3 23 2.7 36.8
18:40 1025 30.27 855 25.25 24.5 76.1 25 3.4 38.1
18:45 1025 30.27 855 25.25 24.5 76 25 3.3 38
18:50 1025 30.27 855 25.25 24.5 76 24 3.1 37.5
18:55 1025 30.27 855 25.25 24.6 76.2 25 3.3 37.9
19:00 1025 30.27 855 25.25 24.6 76.2 25 3.3 37.9
19:05 1025 30.27 855 25.25 24.1 75.3 26 3.5 38.3
19:10 1025 30.27 855 25.25 24.3 75.7 26 3.9 39.1
19:15 1025 30.27 855 25.25 24.1 75.3 26 3.5 38.4
19:20 1025 30.27 855 25.25 23.8 74.8 27 3.6 38.5
19:25 1025 30.27 855 25.25 23.6 74.5 26 3.4 38.1
19:30 1025 30.27 855 25.25 23.5 74.3 27 3.9 39
19:35 1025 30.27 855 25.25 23.4 74.2 28 4.3 39.7
19:40 1025 30.27 855 25.25 23.2 73.8 28 3.8 38.9
19:45 1025 30.27 855 25.25 23.1 73.7 27 3.3 38
19:50 1025 30.27 855 25.25 23 73.4 27 3.1 37.6
19:55 1025 30.27 855 25.25 22.9 73.3 27 3.4 38.1
20:00 1026 30.3 855 25.25 22.8 73.1 27 3.3 37.9
20:05 1026 30.3 855 25.25 22.7 72.9 28 3.3 38
20:10 1026 30.3 855 25.25 22.6 72.8 29 3.7 38.7
20:15 1026 30.3 855 25.25 22.5 72.4 28 3.3 38
20:20 1026 30.3 855 25.25 22.4 72.2 29 3.7 38.7
20:25 1026 30.3 855 25.25 22.2 71.9 29 3.6 38.5
20:30 1026 30.3 855 25.25 22 71.5 30 3.7 38.7
20:35 1026 30.3 855 25.25 21.7 71 31 4.1 39.4
20:40 1026 30.3 855 25.25 21.4 70.6 32 4.1 39.3
20:45 1026 30.3 855 25.25 21.2 70.1 33 4.3 39.8
20:50 1026 30.3 855 25.25 20.9 69.6 34 4.4 40
20:55 1026 30.3 855 25.25 20.7 69.2 34 4.3 39.7
21:00 1026 30.3 855 25.25 20.6 69 34 4.2 39.6
21:05 1026 30.3 855 25.25 20.4 68.7 35 4.5 40
21:10 1026 30.3 855 25.25 20.2 68.3 35 4.2 39.6
21:15 1026 30.3 855 25.25 20.1 68.2 35 4.2 39.6
21:20 1026 30.3 855 25.25 20.1 68.1 35 4.4 40
21:25 1026 30.3 855 25.25 19.9 67.8 36 4.6 40.2
21:30 1026 30.3 856 25.28 19.7 67.5 36 4.5 40.2
21:35 1026 30.3 856 25.28 19.6 67.3 36 4.5 40
21:40 1026 30.3 856 25.28 19.6 67.4 36 4.3 39.8
21:45 1026 30.3 856 25.28 19.7 67.4 36 4.3 39.7
21:50 1027 30.33 856 25.28 19.7 67.4 36 4.3 39.8
21:55 1027 30.33 856 25.28 19.5 67 36 4.3 39.8
22:00 1027 30.33 856 25.28 19.5 67 36 4.2 39.6
22:05 1027 30.33 856 25.28 19.4 67 36 4.1 39.5
22:10 1027 30.33 856 25.28 19.3 66.8 37 4.4 40
22:15 1027 30.33 856 25.28 19.2 66.6 37 4.2 39.6
22:20 1027 30.33 856 25.28 19.2 66.5 37 4.3 39.7
22:25 1027 30.33 856 25.28 19.2 66.6 37 4.4 39.9
22:30 1027 30.33 856 25.28 19.2 66.6 37 4.4 39.9
22:35 1027 30.33 856 25.28 19.3 66.7 37 4.5 40
22:40 1027 30.33 856 25.28 19.2 66.6 37 4.3 39.8
22:45 1027 30.33 856 25.28 19.3 66.8 37 4.3 39.8
22:50 1027 30.33 856 25.28 19.2 66.5 37 4.5 40
22:55 1027 30.33 856 25.28 19.1 66.3 38 4.6 40.2
23:00 1027 30.33 856 25.28 18.8 65.9 39 4.7 40.5
23:05 1027 30.33 856 25.28 18.7 65.6 40 4.8 40.6
23:10 1027 30.33 856 25.28 18.6 65.4 40 4.7 40.4
23:15 1027 30.33 856 25.28 18.4 65.2 41 4.9 40.8
23:20 1027 30.33 856 25.28 18.2 64.8 41 4.9 40.9
23:25 1027 30.33 856 25.28 17.9 64.2 43 5.2 41.3
23:30 1027 30.33 856 25.28 17.4 63.3 44 5.3 41.5
23:35 1027 30.33 856 25.28 17.1 62.8 45 5.3 41.5
23:40 1027 30.33 856 25.28 16.8 62.3 46 5.2 41.3
23:45 1027 30.33 856 25.28 16.8 62.2 45 5 41
23:50 1027 30.33 856 25.28 17 62.6 43 4.5 40.2
23:55 1027 30.33 856 25.28 17.3 63.1 45 5.2 41.4
24:00 1027 30.33 856 25.28 17.1 62.7 44 5 40.9